createdAt,value
2018-06-02T00:02:29.013Z,5.77
2018-06-02T00:05:03.601Z,6.90
2018-06-02T00:07:37.881Z,5.40
2018-06-02T00:10:12.272Z,5.67
2018-06-02T00:12:46.805Z,5.97
2018-06-02T00:15:21.302Z,5.47
2018-06-02T00:17:55.774Z,5.77
2018-06-02T00:20:30.069Z,8.67
2018-06-02T00:23:04.524Z,8.60
2018-06-02T00:25:39.108Z,5.77
2018-06-02T00:28:13.531Z,5.57
2018-06-02T00:30:48.053Z,6.33
2018-06-02T00:33:22.475Z,17.10
2018-06-02T00:35:56.872Z,10.77
2018-06-02T00:38:31.412Z,7.30
2018-06-02T00:41:05.680Z,11.40
2018-06-02T00:43:40.152Z,6.37
2018-06-02T00:46:14.532Z,7.03
2018-06-02T00:48:48.937Z,4.83
2018-06-02T00:51:23.188Z,5.20
2018-06-02T00:53:57.613Z,28.27
2018-06-02T00:56:32.640Z,5.17
2018-06-02T00:59:07.112Z,6.03
2018-06-02T01:01:41.583Z,6.03
2018-06-02T01:04:16.028Z,5.73
2018-06-02T01:06:50.292Z,5.13
2018-06-02T01:09:24.541Z,5.27
2018-06-02T01:11:59.700Z,11.20
2018-06-02T01:14:34.332Z,6.13
2018-06-02T01:17:08.612Z,30.93
2018-06-02T01:19:43.780Z,5.77
2018-06-02T01:22:18.216Z,27.13
2018-06-02T01:24:53.554Z,36.80
2018-06-02T01:27:28.660Z,9.77
2018-06-02T01:30:03.208Z,9.50
2018-06-02T01:32:37.500Z,27.70
2018-06-02T01:35:12.651Z,7.00
2018-06-02T01:37:47.189Z,9.00
2018-06-02T01:40:21.568Z,20.23
2018-06-02T01:42:55.836Z,15.33
2018-06-02T01:45:30.240Z,35.57
2018-06-02T01:48:04.755Z,6.40
2018-06-02T01:50:39.029Z,11.50
2018-06-02T01:53:13.405Z,15.40
2018-06-02T01:55:48.029Z,6.10
2018-06-02T01:58:22.404Z,15.97
2018-06-02T02:00:56.783Z,8.13
2018-06-02T02:03:31.393Z,6.07
2018-06-02T02:06:06.420Z,10.70
2018-06-02T02:08:40.864Z,7.70
2018-06-02T02:11:15.324Z,6.13
2018-06-02T02:13:50.386Z,7.57
2018-06-02T02:16:24.696Z,23.70
2018-06-02T02:18:59.216Z,6.07
2018-06-02T02:21:33.755Z,24.23
2018-06-02T02:24:09.706Z,20.23
2018-06-02T02:26:44.219Z,8.13
2018-06-02T02:29:18.672Z,7.73
2018-06-02T02:31:52.940Z,17.47
2018-06-02T02:34:27.624Z,14.53
2018-06-02T02:37:02.156Z,12.63
2018-06-02T02:39:36.565Z,6.97
2018-06-02T02:42:11.181Z,8.00
2018-06-02T02:44:45.608Z,12.20
2018-06-02T02:47:20.145Z,7.47
2018-06-02T02:49:55.365Z,8.67
2018-06-02T02:52:29.776Z,10.07
2018-06-02T02:55:04.137Z,13.07
2018-06-02T02:57:38.732Z,7.00
2018-06-02T03:00:13.261Z,8.87
2018-06-02T03:02:47.568Z,7.50
2018-06-02T03:05:21.988Z,29.90
2018-06-02T03:07:56.420Z,9.87
2018-06-02T03:10:30.936Z,9.33
2018-06-02T03:13:05.460Z,8.87
2018-06-02T03:15:39.880Z,7.53
2018-06-02T03:18:14.171Z,10.03
2018-06-02T03:20:48.624Z,9.43
2018-06-02T03:23:23.044Z,25.30
2018-06-02T03:25:57.456Z,16.80
2018-06-02T03:28:31.973Z,19.20
2018-06-02T03:31:06.508Z,20.43
2018-06-02T03:33:41.040Z,23.30
2018-06-02T03:36:15.430Z,20.30
2018-06-02T03:38:49.749Z,23.60
2018-06-02T03:41:24.101Z,18.73
2018-06-02T03:43:58.508Z,17.67
2018-06-02T03:46:33.032Z,17.97
2018-06-02T03:49:08.169Z,32.90
2018-06-02T03:51:42.488Z,29.03
2018-06-02T03:54:17.724Z,23.83
2018-06-02T03:56:52.252Z,24.40
2018-06-02T03:59:27.492Z,28.70
2018-06-02T04:02:01.912Z,24.23
2018-06-02T04:04:36.328Z,29.27
2018-06-02T04:07:10.753Z,33.43
2018-06-02T04:09:46.197Z,32.63
2018-06-02T04:12:20.517Z,27.40
2018-06-02T04:14:55.140Z,30.03
2018-06-02T04:17:30.280Z,35.17
2018-06-02T04:20:04.740Z,32.87
2018-06-02T04:22:39.208Z,30.67
2018-06-02T04:25:13.636Z,29.43
2018-06-02T04:27:48.181Z,27.70
2018-06-02T04:30:22.792Z,26.23
2018-06-02T04:32:57.237Z,29.63
2018-06-02T04:35:31.836Z,29.13
2018-06-02T04:38:06.370Z,23.13
2018-06-02T04:40:40.784Z,28.00
2018-06-02T04:43:15.275Z,28.90
2018-06-02T04:45:49.841Z,25.00
2018-06-02T04:48:24.217Z,21.97
2018-06-02T04:50:58.672Z,23.30
2018-06-02T04:53:33.799Z,19.13
2018-06-02T04:56:09.057Z,24.53
2018-06-02T04:58:43.540Z,24.10
2018-06-02T05:01:17.900Z,26.30
2018-06-02T05:03:52.364Z,26.27
2018-06-02T05:06:26.882Z,27.83
2018-06-02T05:09:02.276Z,24.20
2018-06-02T05:11:36.597Z,26.63
2018-06-02T05:14:11.225Z,28.00
2018-06-02T05:16:45.543Z,25.93
2018-06-02T05:19:19.964Z,21.60
2018-06-02T05:21:54.477Z,26.60
2018-06-02T05:24:29.720Z,20.33
2018-06-02T05:27:04.060Z,23.30
2018-06-02T05:29:39.197Z,25.67
2018-06-02T05:32:13.467Z,21.53
2018-06-02T05:34:47.917Z,24.80
2018-06-02T05:37:22.341Z,26.73
2018-06-02T05:39:56.760Z,25.37
2018-06-02T05:42:31.245Z,31.10
2018-06-02T05:45:05.721Z,28.60
2018-06-02T05:47:40.228Z,30.23
2018-06-02T05:50:14.605Z,19.67
2018-06-02T05:52:49.680Z,29.53
2018-06-02T05:55:24.902Z,27.70
2018-06-02T05:57:59.436Z,26.57
2018-06-02T06:00:33.736Z,22.20
2018-06-02T06:03:08.936Z,27.07
2018-06-02T06:05:43.302Z,30.63
2018-06-02T06:08:17.622Z,23.93
2018-06-02T06:10:52.160Z,27.73
2018-06-02T06:13:26.684Z,19.47
2018-06-02T06:16:01.204Z,25.93
2018-06-02T06:18:35.636Z,28.07
2018-06-02T06:21:10.248Z,30.07
2018-06-02T06:23:44.522Z,26.90
2018-06-02T06:26:18.992Z,21.17
2018-06-02T06:28:53.428Z,29.63
2018-06-02T06:31:27.913Z,30.63
2018-06-02T06:34:02.556Z,30.50
2018-06-02T06:36:36.880Z,28.10
2018-06-02T06:39:11.418Z,33.50
2018-06-02T06:41:45.894Z,30.23
2018-06-02T06:44:20.332Z,30.37
2018-06-02T06:46:55.353Z,34.67
2018-06-02T06:49:29.809Z,23.60
2018-06-02T06:52:04.192Z,33.60
2018-06-02T06:54:39.219Z,24.57
2018-06-02T06:57:13.680Z,23.27
2018-06-02T06:59:48.912Z,28.03
2018-06-02T07:02:23.219Z,34.63
2018-06-02T07:04:57.731Z,33.27
2018-06-02T07:07:32.173Z,31.47
2018-06-02T07:10:07.321Z,35.00
2018-06-02T07:12:41.817Z,32.10
2018-06-02T07:15:16.249Z,37.00
2018-06-02T07:17:51.516Z,38.90
2018-06-02T07:20:26.844Z,33.03
2018-06-02T07:23:01.268Z,35.67
2018-06-02T07:25:35.889Z,34.10
2018-06-02T07:28:10.176Z,37.97
2018-06-02T07:30:44.660Z,34.00
2018-06-02T07:33:19.856Z,32.97
2018-06-02T07:35:55.824Z,32.93
2018-06-02T07:38:30.111Z,32.80
2018-06-02T07:41:04.564Z,24.47
2018-06-02T07:43:39.889Z,37.93
2018-06-02T07:46:14.328Z,38.50
2018-06-02T07:48:48.770Z,31.43
2018-06-02T07:51:23.164Z,33.07
2018-06-02T07:53:57.704Z,29.83
2018-06-02T07:56:32.216Z,36.13
2018-06-02T07:59:06.636Z,32.03
2018-06-02T08:01:41.052Z,39.27
2018-06-02T08:04:15.359Z,35.57
2018-06-02T08:06:49.801Z,32.80
2018-06-02T08:09:24.091Z,35.87
2018-06-02T08:11:59.221Z,34.40
2018-06-02T08:14:33.776Z,38.40
2018-06-02T08:17:08.171Z,27.53
2018-06-02T08:19:43.432Z,29.37
2018-06-02T08:22:17.856Z,23.37
2018-06-02T08:24:52.238Z,40.77
2018-06-02T08:27:26.548Z,32.53
2018-06-02T08:30:00.997Z,29.90
2018-06-02T08:32:35.538Z,40.00
2018-06-02T08:35:09.977Z,42.37
2018-06-02T08:37:44.362Z,35.90
2018-06-02T08:40:18.905Z,34.10
2018-06-02T08:42:53.320Z,27.43
2018-06-02T08:45:27.952Z,34.80
2018-06-02T08:48:04.100Z,35.63
2018-06-02T08:50:38.428Z,36.67
2018-06-02T08:53:12.852Z,44.33
2018-06-02T08:55:47.471Z,40.83
2018-06-02T08:58:22.008Z,41.83
2018-06-02T09:00:56.425Z,36.83
2018-06-02T09:03:30.676Z,37.57
2018-06-02T09:06:05.981Z,39.73
2018-06-02T09:08:40.276Z,34.13
2018-06-02T09:11:14.920Z,31.33
2018-06-02T09:13:49.756Z,39.40
2018-06-02T09:16:24.144Z,38.10
2018-06-02T09:18:58.453Z,31.37
2018-06-02T09:21:32.912Z,35.37
2018-06-02T09:24:08.049Z,40.13
2018-06-02T09:26:42.449Z,35.43
2018-06-02T09:29:16.791Z,33.10
2018-06-02T09:31:51.200Z,34.00
2018-06-02T09:34:25.719Z,34.60
2018-06-02T09:37:00.340Z,39.37
2018-06-02T09:39:34.675Z,38.13
2018-06-02T09:42:09.207Z,34.33
2018-06-02T09:44:43.508Z,28.57
2018-06-02T09:47:18.152Z,25.43
2018-06-02T09:49:52.668Z,33.23
2018-06-02T09:52:26.952Z,36.60
2018-06-02T09:55:01.387Z,36.20
2018-06-02T09:57:35.798Z,36.73
2018-06-02T10:00:10.230Z,37.17
2018-06-02T10:02:44.612Z,35.70
2018-06-02T10:05:19.000Z,34.30
2018-06-02T10:07:53.712Z,31.97
2018-06-02T10:10:29.715Z,32.60
2018-06-02T10:13:04.052Z,31.40
2018-06-02T10:15:38.521Z,32.87
2018-06-02T10:18:12.845Z,31.77
2018-06-02T10:20:48.061Z,29.23
2018-06-02T10:23:23.280Z,31.53
2018-06-02T10:25:58.341Z,24.70
2018-06-02T10:28:32.771Z,23.23
2018-06-02T10:31:07.289Z,21.40
2018-06-02T10:33:41.656Z,26.13
2018-06-02T10:36:16.099Z,21.23
2018-06-02T10:38:50.645Z,21.63
2018-06-02T10:41:25.050Z,25.17
2018-06-02T10:44:00.315Z,26.10
2018-06-02T10:46:34.600Z,27.47
2018-06-02T10:49:08.852Z,28.90
2018-06-02T10:51:43.372Z,23.87
2018-06-02T10:54:17.784Z,32.40
2018-06-02T10:56:52.213Z,21.40
2018-06-02T10:59:26.506Z,39.33
2018-06-02T11:02:00.844Z,32.10
2018-06-02T11:04:35.166Z,26.27
2018-06-02T11:07:10.188Z,34.30
2018-06-02T11:09:44.621Z,33.73
2018-06-02T11:12:18.885Z,33.27
2018-06-02T11:14:53.338Z,30.23
2018-06-02T11:17:27.593Z,37.03
2018-06-02T11:20:02.108Z,35.43
2018-06-02T11:22:37.440Z,34.17
2018-06-02T11:25:12.169Z,35.97
2018-06-02T11:27:46.582Z,43.63
2018-06-02T11:30:21.608Z,42.20
2018-06-02T11:32:56.025Z,41.10
2018-06-02T11:35:30.537Z,37.03
2018-06-02T11:38:05.192Z,37.00
2018-06-02T11:40:39.576Z,43.90
2018-06-02T11:43:13.905Z,43.13
2018-06-02T11:45:48.186Z,45.37
2018-06-02T11:48:22.544Z,42.03
2018-06-02T11:50:57.305Z,40.07
2018-06-02T11:53:31.576Z,43.77
2018-06-02T11:56:06.117Z,42.17
2018-06-02T11:58:40.531Z,36.87
2018-06-02T12:01:14.824Z,37.63
2018-06-02T12:03:49.081Z,38.37
2018-06-02T12:06:23.720Z,41.57
2018-06-02T12:08:58.320Z,37.20
2018-06-02T12:11:32.608Z,32.70
2018-06-02T12:14:07.084Z,39.13
2018-06-02T12:16:41.369Z,31.57
2018-06-02T12:19:16.029Z,34.83
2018-06-02T12:21:50.300Z,35.60
2018-06-02T12:24:24.669Z,30.90
2018-06-02T12:26:59.320Z,31.73
2018-06-02T12:29:33.714Z,31.73
2018-06-02T12:32:08.216Z,32.63
2018-06-02T12:34:42.670Z,30.50
2018-06-02T12:37:17.049Z,28.30
2018-06-02T12:39:51.492Z,27.37
2018-06-02T12:42:26.103Z,28.20
2018-06-02T12:45:00.640Z,27.10
2018-06-02T12:47:35.068Z,26.67
2018-06-02T12:50:10.365Z,24.53
2018-06-02T12:52:44.647Z,24.33
2018-06-02T12:55:19.149Z,22.53
2018-06-02T12:57:54.488Z,23.97
2018-06-02T13:00:28.864Z,21.10
2018-06-02T13:03:03.528Z,22.03
2018-06-02T13:05:37.957Z,22.33
2018-06-02T13:08:12.452Z,23.93
2018-06-02T13:10:46.719Z,18.07
2018-06-02T13:13:21.392Z,32.37
2018-06-02T13:15:56.817Z,21.93
2018-06-02T13:18:31.284Z,18.33
2018-06-02T13:21:06.495Z,21.43
2018-06-02T13:23:41.248Z,21.07
2018-06-02T13:26:15.568Z,19.87
2018-06-02T13:28:49.973Z,20.83
2018-06-02T13:31:24.298Z,19.23
2018-06-02T13:33:58.827Z,20.03
2018-06-02T13:36:33.257Z,20.10
2018-06-02T13:39:07.696Z,19.43
2018-06-02T13:41:42.305Z,18.57
2018-06-02T13:44:16.705Z,20.83
2018-06-02T13:46:51.244Z,20.77
2018-06-02T13:49:25.772Z,21.53
2018-06-02T13:52:00.176Z,20.50
2018-06-02T13:54:34.436Z,18.33
2018-06-02T13:57:08.907Z,15.07
2018-06-02T13:59:43.346Z,17.33
2018-06-02T14:02:17.649Z,19.77
2018-06-02T14:04:51.966Z,18.80
2018-06-02T14:07:26.387Z,17.97
2018-06-02T14:10:00.777Z,20.23
2018-06-02T14:12:35.405Z,18.37
2018-06-02T14:15:09.757Z,21.27
2018-06-02T14:17:44.392Z,22.20
2018-06-02T14:20:18.919Z,18.43
2018-06-02T14:22:53.295Z,20.87
2018-06-02T14:25:28.425Z,16.30
2018-06-02T14:28:03.104Z,17.03
2018-06-02T14:30:37.737Z,15.83
2018-06-02T14:33:11.989Z,13.90
2018-06-02T14:35:47.052Z,14.70
2018-06-02T14:38:21.528Z,17.07
2018-06-02T14:40:55.930Z,16.47
2018-06-02T14:43:30.345Z,16.20
2018-06-02T14:46:04.964Z,13.97
2018-06-02T14:48:39.395Z,11.80
2018-06-02T14:51:13.700Z,11.63
2018-06-02T14:53:48.113Z,12.60
2018-06-02T14:56:22.600Z,11.67
2018-06-02T14:58:57.177Z,13.83
2018-06-02T15:01:31.465Z,12.93
2018-06-02T15:04:05.932Z,13.57
2018-06-02T15:06:40.449Z,13.00
2018-06-02T15:09:14.965Z,13.77
2018-06-02T15:11:49.392Z,15.10
2018-06-02T15:14:23.716Z,14.03
2018-06-02T15:16:58.020Z,12.17
2018-06-02T15:19:32.326Z,13.97
2018-06-02T15:22:06.656Z,11.93
2018-06-02T15:24:41.089Z,15.33
2018-06-02T15:27:15.468Z,12.70
2018-06-02T15:29:49.929Z,13.47
2018-06-02T15:32:24.260Z,12.20
2018-06-02T15:34:58.677Z,16.27
2018-06-02T15:37:33.088Z,14.30
2018-06-02T15:40:07.610Z,14.57
2018-06-02T15:42:42.022Z,12.97
2018-06-02T15:45:16.457Z,17.50
2018-06-02T15:47:50.860Z,13.10
2018-06-02T15:50:25.491Z,13.57
2018-06-02T15:52:59.809Z,12.57
2018-06-02T15:55:34.320Z,14.40
2018-06-02T15:58:09.352Z,18.87
2018-06-02T16:00:43.684Z,13.47
2018-06-02T16:03:18.300Z,11.87
2018-06-02T16:05:52.629Z,10.37
2018-06-02T16:08:27.026Z,14.23
2018-06-02T16:11:01.353Z,13.27
2018-06-02T16:13:35.664Z,16.77
2018-06-02T16:16:10.698Z,16.73
2018-06-02T16:18:45.744Z,16.10
2018-06-02T16:21:20.412Z,18.77
2018-06-02T16:23:54.692Z,24.00
2018-06-02T16:26:29.120Z,17.93
2018-06-02T16:29:03.452Z,12.77
2018-06-02T16:31:37.756Z,15.10
2018-06-02T16:34:12.180Z,14.57
2018-06-02T16:36:47.284Z,11.27
2018-06-02T16:39:36.600Z,11.77
2018-06-02T16:42:11.855Z,13.47
2018-06-02T16:44:46.338Z,14.57
2018-06-02T16:47:20.677Z,13.33
2018-06-02T16:49:54.948Z,15.00
2018-06-02T16:52:29.411Z,12.17
2018-06-02T16:55:04.025Z,13.53
2018-06-02T16:57:39.345Z,14.07
2018-06-02T17:00:13.900Z,16.30
2018-06-02T17:02:48.412Z,13.73
2018-06-02T17:05:22.834Z,14.17
2018-06-02T17:07:57.144Z,16.43
2018-06-02T17:10:31.469Z,15.20
2018-06-02T17:13:05.756Z,18.90
2018-06-02T17:15:40.109Z,20.33
2018-06-02T17:18:14.609Z,16.17
2018-06-02T17:20:49.010Z,10.70
2018-06-02T17:23:23.684Z,11.17
2018-06-02T17:25:58.080Z,16.27
2018-06-02T17:28:32.621Z,15.70
2018-06-02T17:31:07.163Z,18.80
2018-06-02T17:33:43.199Z,16.30
2018-06-02T17:36:17.624Z,17.87
2018-06-02T17:38:52.008Z,18.70
2018-06-02T17:41:26.340Z,15.57
2018-06-02T17:44:00.785Z,17.50
2018-06-02T17:46:35.196Z,16.87
2018-06-02T17:49:09.593Z,16.53
2018-06-02T17:51:43.928Z,20.20
2018-06-02T17:54:19.160Z,18.07
2018-06-02T17:56:53.503Z,16.23
2018-06-02T17:59:27.896Z,14.97
2018-06-02T18:02:02.447Z,18.07
2018-06-02T18:04:36.945Z,15.90
2018-06-02T18:07:11.230Z,16.70
2018-06-02T18:09:45.685Z,16.47
2018-06-02T18:12:20.125Z,16.23
2018-06-02T18:14:54.436Z,16.80
2018-06-02T18:17:28.716Z,13.97
2018-06-02T18:20:03.208Z,17.17
2018-06-02T18:22:37.726Z,19.30
2018-06-02T18:25:12.237Z,14.67
2018-06-02T18:27:46.654Z,14.87
2018-06-02T18:30:21.028Z,14.90
2018-06-02T18:32:55.309Z,16.30
2018-06-02T18:35:29.712Z,14.17
2018-06-02T18:38:04.081Z,13.40
2018-06-02T18:40:39.176Z,14.87
2018-06-02T18:43:13.693Z,15.50
2018-06-02T18:45:48.120Z,16.67
2018-06-02T18:48:22.541Z,14.43
2018-06-02T18:50:56.908Z,18.13
2018-06-02T18:53:31.466Z,16.47
2018-06-02T18:56:05.888Z,15.50
2018-06-02T18:58:41.005Z,17.23
2018-06-02T19:01:16.149Z,17.20
2018-06-02T19:03:50.495Z,14.70
2018-06-02T19:06:24.808Z,18.13
2018-06-02T19:09:00.764Z,17.50
2018-06-02T19:11:35.069Z,15.47
2018-06-02T19:14:09.669Z,16.97
2018-06-02T19:16:44.103Z,17.17
2018-06-02T19:19:18.656Z,16.63
2018-06-02T19:21:53.064Z,18.20
2018-06-02T19:24:27.444Z,16.43
2018-06-02T19:27:02.012Z,17.60
2018-06-02T19:29:36.304Z,17.87
2018-06-02T19:32:11.343Z,17.17
2018-06-02T19:34:46.480Z,14.17
2018-06-02T19:37:20.916Z,14.97
2018-06-02T19:39:55.219Z,16.87
2018-06-02T19:42:30.252Z,17.63
2018-06-02T19:45:04.673Z,15.80
2018-06-02T19:47:39.211Z,16.03
2018-06-02T19:50:13.721Z,17.50
2018-06-02T19:52:48.034Z,17.03
2018-06-02T19:55:22.425Z,15.43
2018-06-02T19:57:56.877Z,19.47
2018-06-02T20:00:31.748Z,18.33
2018-06-02T20:03:07.051Z,19.33
2018-06-02T20:05:41.488Z,16.00
2018-06-02T20:08:15.908Z,18.23
2018-06-02T20:10:50.316Z,18.97
2018-06-02T20:13:24.624Z,19.53
2018-06-02T20:15:58.984Z,18.17
2018-06-02T20:18:33.492Z,22.33
2018-06-02T20:21:07.793Z,16.53
2018-06-02T20:23:42.123Z,18.77
2018-06-02T20:26:16.621Z,19.20
2018-06-02T20:28:51.898Z,16.30
2018-06-02T20:31:26.297Z,17.43
2018-06-02T20:34:00.736Z,17.80
2018-06-02T20:36:35.241Z,19.17
2018-06-02T20:39:09.648Z,18.43
2018-06-02T20:41:44.080Z,20.53
2018-06-02T20:44:19.836Z,18.73
2018-06-02T20:46:54.150Z,18.87
2018-06-02T20:49:28.796Z,18.23
2018-06-02T20:52:03.271Z,18.13
2018-06-02T20:54:37.713Z,20.43
2018-06-02T20:57:12.132Z,19.63
2018-06-02T20:59:46.552Z,21.00
2018-06-02T21:02:20.876Z,20.10
2018-06-02T21:04:55.345Z,20.93
2018-06-02T21:07:29.712Z,21.80
2018-06-02T21:10:04.072Z,24.17
2018-06-02T21:12:38.443Z,20.77
2018-06-02T21:15:12.872Z,23.30
2018-06-02T21:17:47.427Z,22.60
2018-06-02T21:20:21.838Z,23.33
2018-06-02T21:22:56.269Z,23.00
2018-06-02T21:25:30.688Z,21.93
2018-06-02T21:28:05.108Z,20.67
2018-06-02T21:30:39.397Z,20.33
2018-06-02T21:33:13.844Z,22.47
2018-06-02T21:35:48.368Z,17.63
2018-06-02T21:38:22.685Z,20.30
2018-06-02T21:40:57.000Z,23.13
2018-06-02T21:43:31.312Z,21.80
2018-06-02T21:46:05.944Z,18.80
2018-06-02T21:48:40.352Z,20.77
2018-06-02T21:51:14.780Z,21.23
2018-06-02T21:53:49.201Z,19.50
2018-06-02T21:56:23.635Z,22.90
2018-06-02T21:58:59.463Z,22.00
2018-06-02T22:01:33.808Z,23.03
2018-06-02T22:04:08.147Z,20.00
2018-06-02T22:06:42.404Z,24.50
2018-06-02T22:09:17.468Z,25.40
2018-06-02T22:11:52.708Z,21.03
2018-06-02T22:14:27.040Z,23.20
2018-06-02T22:17:01.653Z,23.97
2018-06-02T22:19:36.163Z,23.73
2018-06-02T22:22:10.503Z,25.10
2018-06-02T22:24:44.895Z,24.17
2018-06-02T22:27:19.225Z,27.73
2018-06-02T22:29:53.661Z,23.30
2018-06-02T22:32:28.064Z,22.63
2018-06-02T22:35:02.503Z,25.40
2018-06-02T22:37:36.920Z,24.00
2018-06-02T22:40:11.340Z,27.40
2018-06-02T22:42:45.760Z,27.30
2018-06-02T22:45:20.204Z,27.63
2018-06-02T22:47:54.600Z,25.33
2018-06-02T22:50:30.532Z,25.77
2018-06-02T22:53:04.864Z,25.40
2018-06-02T22:55:40.042Z,26.50
2018-06-02T22:58:14.549Z,22.80
2018-06-02T23:00:49.207Z,22.20
2018-06-02T23:03:23.593Z,25.17
2018-06-02T23:05:57.909Z,25.33
2018-06-02T23:08:32.229Z,24.17
2018-06-02T23:11:06.611Z,23.73
2018-06-02T23:13:40.832Z,25.83
2018-06-02T23:16:15.180Z,26.17
2018-06-02T23:18:49.394Z,23.40
2018-06-02T23:21:23.621Z,27.87
2018-06-02T23:23:57.840Z,23.77
2018-06-02T23:26:32.217Z,24.87
2018-06-02T23:29:06.556Z,25.23
2018-06-02T23:31:40.875Z,24.63
2018-06-02T23:34:15.400Z,28.43
2018-06-02T23:36:49.597Z,30.27
2018-06-02T23:39:24.556Z,27.97
2018-06-02T23:41:58.981Z,26.07
2018-06-02T23:44:33.397Z,28.30
2018-06-02T23:47:07.469Z,30.30
2018-06-02T23:49:42.425Z,28.57
2018-06-02T23:52:17.363Z,24.93
2018-06-02T23:54:51.608Z,28.47
2018-06-02T23:57:26.020Z,25.83
